createdAt,value
2022-11-24T17:26:48.755Z,4.41
2022-11-24T17:29:50.788Z,4.55
2022-11-24T17:32:56.751Z,4.44
2022-11-24T17:36:01.405Z,4.37
2022-11-24T17:39:07.178Z,4.45
2022-11-24T17:42:08.834Z,4.46
2022-11-24T17:45:10.576Z,4.50
2022-11-24T17:48:12.935Z,4.58
2022-11-24T17:51:15.860Z,4.70
2022-11-24T17:54:45.268Z,4.81
2022-11-24T17:57:39.472Z,4.92
2022-11-24T18:00:41.054Z,5.11
2022-11-24T18:03:42.664Z,5.26
2022-11-24T18:06:44.521Z,5.44
2022-11-24T18:09:46.036Z,5.59
2022-11-24T18:12:47.700Z,5.67
2022-11-24T18:15:49.201Z,5.76
2022-11-24T18:19:07.039Z,5.77
2022-11-24T18:22:09.694Z,5.72
2022-11-24T18:25:11.376Z,5.66
2022-11-24T18:28:12.924Z,5.59
2022-11-24T18:31:15.381Z,5.54
2022-11-24T18:34:16.960Z,5.43
2022-11-24T18:37:18.558Z,5.36
2022-11-24T18:40:20.110Z,5.33
2022-11-24T18:43:22.244Z,5.26
2022-11-24T18:46:23.880Z,5.27
2022-11-24T18:49:25.469Z,5.21
2022-11-24T18:52:27.079Z,5.18
2022-11-24T18:55:28.670Z,5.14
2022-11-24T18:58:31.340Z,5.11
2022-11-24T19:01:33.052Z,5.10
2022-11-24T19:04:34.927Z,5.12
2022-11-24T19:07:37.374Z,5.11
2022-11-24T19:10:39.257Z,5.05
2022-11-24T19:13:40.906Z,4.98
2022-11-24T19:16:42.687Z,4.97
2022-11-24T19:19:44.408Z,4.90
2022-11-24T19:22:45.951Z,4.80
2022-11-24T19:25:47.616Z,4.70
2022-11-24T19:28:49.246Z,4.64
2022-11-24T19:31:50.882Z,4.58
2022-11-24T19:34:52.476Z,4.54
2022-11-24T19:37:55.870Z,4.56
2022-11-24T19:41:04.327Z,4.50
2022-11-24T19:44:06.359Z,4.43
2022-11-24T19:47:07.919Z,4.38
2022-11-24T19:50:10.649Z,4.40
2022-11-24T19:53:12.267Z,4.35
2022-11-24T19:56:14.643Z,4.33
2022-11-24T19:59:16.208Z,4.34
2022-11-24T20:02:18.241Z,4.40
2022-11-24T20:05:19.818Z,4.45
2022-11-24T20:08:21.407Z,4.57
2022-11-24T20:11:22.975Z,4.73
2022-11-24T20:14:24.545Z,4.80
2022-11-24T20:17:26.169Z,4.87
2022-11-24T20:20:27.724Z,4.93
2022-11-24T20:23:29.260Z,4.90
2022-11-24T20:26:32.148Z,4.91
2022-11-24T20:29:33.985Z,4.79
2022-11-24T20:32:35.573Z,4.71
2022-11-24T20:35:37.124Z,4.70
2022-11-24T20:38:39.014Z,4.74
2022-11-24T20:41:41.301Z,4.76
2022-11-24T20:44:42.831Z,4.66
2022-11-24T20:47:44.379Z,4.64
2022-11-24T20:50:51.150Z,4.66
2022-11-24T20:53:54.028Z,4.62
2022-11-24T20:56:55.634Z,4.53
2022-11-24T20:59:57.172Z,4.46
2022-11-24T21:02:58.835Z,4.36
2022-11-24T21:06:00.632Z,4.26
2022-11-24T21:09:04.160Z,4.17
2022-11-24T21:12:06.055Z,4.12
2022-11-24T21:15:07.904Z,4.09
2022-11-24T21:18:09.445Z,4.14
2022-11-24T21:21:11.717Z,4.07
2022-11-24T21:24:14.129Z,4.06
2022-11-24T21:27:15.668Z,4.02
2022-11-24T21:30:17.262Z,4.03
2022-11-24T21:33:19.864Z,4.01
2022-11-24T21:36:25.350Z,3.97
2022-11-24T21:39:27.205Z,3.88
2022-11-24T21:42:28.855Z,3.93
2022-11-24T21:45:30.517Z,3.97
2022-11-24T21:48:32.727Z,3.97
2022-11-24T21:51:34.263Z,3.96
2022-11-24T21:54:36.077Z,4.01
2022-11-24T21:57:38.567Z,4.04
2022-11-24T22:00:40.202Z,4.10
2022-11-24T22:03:41.919Z,4.06
2022-11-24T22:06:44.724Z,4.02
2022-11-24T22:09:46.739Z,4.01
2022-11-24T22:12:48.296Z,4.06
2022-11-24T22:15:58.320Z,4.08
2022-11-24T22:19:00.087Z,4.14
2022-11-24T22:22:01.744Z,4.16
2022-11-24T22:25:03.405Z,4.18
2022-11-24T22:28:04.986Z,4.15
2022-11-24T22:31:07.253Z,4.09
2022-11-24T22:34:08.969Z,4.02
2022-11-24T22:37:10.517Z,3.99
2022-11-24T22:40:12.089Z,3.97
2022-11-24T22:43:15.094Z,3.92
2022-11-24T22:46:20.113Z,3.86
2022-11-24T22:49:21.667Z,3.84
2022-11-24T22:52:23.205Z,3.87
2022-11-24T22:55:24.811Z,3.93
2022-11-24T22:58:26.350Z,3.93
2022-11-24T23:01:28.354Z,3.94
2022-11-24T23:04:29.957Z,3.95
2022-11-24T23:07:31.581Z,3.93
2022-11-24T23:10:33.131Z,3.89
2022-11-24T23:13:34.821Z,3.87
2022-11-24T23:16:36.502Z,3.81
2022-11-24T23:19:38.222Z,3.77
2022-11-24T23:22:39.762Z,3.77
2022-11-24T23:25:41.349Z,3.77
2022-11-24T23:28:45.873Z,3.79
2022-11-24T23:31:47.486Z,3.81
2022-11-24T23:34:49.031Z,3.85
2022-11-24T23:38:07.111Z,3.84
2022-11-24T23:41:10.900Z,3.78
2022-11-24T23:44:12.404Z,3.77
2022-11-24T23:47:13.976Z,3.80
2022-11-24T23:50:15.496Z,3.86
2022-11-24T23:53:17.011Z,4.08
2022-11-24T23:56:19.744Z,4.11
2022-11-24T23:59:22.636Z,4.08
